sensor_id;sensor_type;location;lat;lon;timestamp;P1;durP1;ratioP1;P2;durP2;ratioP2
35372;SDS011;21476;51.652;7.852;2022-11-06T00:00:17;11.77;;;5.75;;
35372;SDS011;21476;51.652;7.852;2022-11-06T00:02:43;8.73;;;4.60;;
35372;SDS011;21476;51.652;7.852;2022-11-06T00:05:09;13.60;;;5.03;;
35372;SDS011;21476;51.652;7.852;2022-11-06T00:07:54;14.35;;;5.53;;
35372;SDS011;21476;51.652;7.852;2022-11-06T00:10:20;13.85;;;5.60;;
35372;SDS011;21476;51.652;7.852;2022-11-06T00:12:46;8.95;;;4.72;;
35372;SDS011;21476;51.652;7.852;2022-11-06T00:15:12;10.10;;;5.28;;
35372;SDS011;21476;51.652;7.852;2022-11-06T00:17:37;8.45;;;5.07;;
35372;SDS011;21476;51.652;7.852;2022-11-06T00:20:04;9.93;;;5.43;;
35372;SDS011;21476;51.652;7.852;2022-11-06T00:22:31;12.82;;;6.28;;
35372;SDS011;21476;51.652;7.852;2022-11-06T00:24:58;10.32;;;5.38;;
35372;SDS011;21476;51.652;7.852;2022-11-06T00:27:23;15.70;;;5.90;;
35372;SDS011;21476;51.652;7.852;2022-11-06T00:29:49;11.45;;;5.57;;
35372;SDS011;21476;51.652;7.852;2022-11-06T00:32:15;11.75;;;5.93;;
35372;SDS011;21476;51.652;7.852;2022-11-06T00:34:40;10.52;;;5.60;;
35372;SDS011;21476;51.652;7.852;2022-11-06T00:37:06;11.27;;;6.28;;
35372;SDS011;21476;51.652;7.852;2022-11-06T00:39:32;10.80;;;5.50;;
35372;SDS011;21476;51.652;7.852;2022-11-06T00:41:57;11.18;;;6.05;;
35372;SDS011;21476;51.652;7.852;2022-11-06T00:44:23;10.13;;;5.97;;
35372;SDS011;21476;51.652;7.852;2022-11-06T00:46:49;9.63;;;5.25;;
35372;SDS011;21476;51.652;7.852;2022-11-06T00:49:15;12.48;;;6.22;;
35372;SDS011;21476;51.652;7.852;2022-11-06T00:51:40;10.63;;;6.22;;
35372;SDS011;21476;51.652;7.852;2022-11-06T00:54:08;9.30;;;5.60;;
35372;SDS011;21476;51.652;7.852;2022-11-06T00:56:35;12.68;;;5.00;;
35372;SDS011;21476;51.652;7.852;2022-11-06T00:59:02;12.50;;;5.47;;
35372;SDS011;21476;51.652;7.852;2022-11-06T01:01:32;9.63;;;5.25;;
35372;SDS011;21476;51.652;7.852;2022-11-06T01:04:03;9.88;;;4.72;;
35372;SDS011;21476;51.652;7.852;2022-11-06T01:06:32;10.35;;;4.50;;
35372;SDS011;21476;51.652;7.852;2022-11-06T01:09:01;8.38;;;4.15;;
35372;SDS011;21476;51.652;7.852;2022-11-06T01:11:35;11.35;;;4.40;;
35372;SDS011;21476;51.652;7.852;2022-11-06T01:14:06;11.65;;;4.70;;
35372;SDS011;21476;51.652;7.852;2022-11-06T01:16:33;10.30;;;4.85;;
35372;SDS011;21476;51.652;7.852;2022-11-06T01:18:59;8.52;;;4.70;;
35372;SDS011;21476;51.652;7.852;2022-11-06T01:21:26;11.10;;;4.55;;
35372;SDS011;21476;51.652;7.852;2022-11-06T01:23:54;7.47;;;4.03;;
35372;SDS011;21476;51.652;7.852;2022-11-06T01:26:24;13.40;;;5.13;;
35372;SDS011;21476;51.652;7.852;2022-11-06T01:28:51;10.45;;;4.00;;
35372;SDS011;21476;51.652;7.852;2022-11-06T01:31:19;9.38;;;4.38;;
35372;SDS011;21476;51.652;7.852;2022-11-06T01:33:47;9.63;;;4.10;;
35372;SDS011;21476;51.652;7.852;2022-11-06T01:36:14;10.15;;;3.97;;
35372;SDS011;21476;51.652;7.852;2022-11-06T01:38:42;6.80;;;3.72;;
35372;SDS011;21476;51.652;7.852;2022-11-06T01:41:13;11.23;;;3.67;;
35372;SDS011;21476;51.652;7.852;2022-11-06T01:43:52;8.15;;;3.17;;
35372;SDS011;21476;51.652;7.852;2022-11-06T01:46:22;10.60;;;3.33;;
35372;SDS011;21476;51.652;7.852;2022-11-06T01:49:07;7.72;;;3.95;;
35372;SDS011;21476;51.652;7.852;2022-11-06T01:51:47;8.30;;;3.85;;
35372;SDS011;21476;51.652;7.852;2022-11-06T01:54:16;8.23;;;3.72;;
35372;SDS011;21476;51.652;7.852;2022-11-06T01:56:42;10.93;;;3.70;;
35372;SDS011;21476;51.652;7.852;2022-11-06T01:59:12;8.15;;;3.65;;
35372;SDS011;21476;51.652;7.852;2022-11-06T02:01:40;10.07;;;3.85;;
35372;SDS011;21476;51.652;7.852;2022-11-06T02:04:08;8.63;;;3.60;;
35372;SDS011;21476;51.652;7.852;2022-11-06T02:06:38;8.10;;;2.95;;
35372;SDS011;21476;51.652;7.852;2022-11-06T02:09:04;13.10;;;3.65;;
35372;SDS011;21476;51.652;7.852;2022-11-06T02:11:37;9.20;;;3.80;;
35372;SDS011;21476;51.652;7.852;2022-11-06T02:16:40;9.60;;;2.90;;
35372;SDS011;21476;51.652;7.852;2022-11-06T02:32:44;9.83;;;3.10;;
35372;SDS011;21476;51.652;7.852;2022-11-06T02:36:02;10.10;;;3.55;;
35372;SDS011;21476;51.652;7.852;2022-11-06T02:38:38;5.95;;;2.20;;
35372;SDS011;21476;51.652;7.852;2022-11-06T02:41:09;8.30;;;3.50;;
35372;SDS011;21476;51.652;7.852;2022-11-06T02:43:44;10.52;;;2.90;;
35372;SDS011;21476;51.652;7.852;2022-11-06T02:46:15;7.57;;;2.88;;
35372;SDS011;21476;51.652;7.852;2022-11-06T02:48:45;7.78;;;3.00;;
35372;SDS011;21476;51.652;7.852;2022-11-06T02:51:16;7.50;;;3.22;;
35372;SDS011;21476;51.652;7.852;2022-11-06T02:53:46;10.38;;;2.95;;
35372;SDS011;21476;51.652;7.852;2022-11-06T02:56:17;6.25;;;2.90;;
35372;SDS011;21476;51.652;7.852;2022-11-06T02:58:48;8.98;;;3.28;;
35372;SDS011;21476;51.652;7.852;2022-11-06T03:01:36;6.82;;;3.05;;
35372;SDS011;21476;51.652;7.852;2022-11-06T03:04:15;9.95;;;3.33;;
35372;SDS011;21476;51.652;7.852;2022-11-06T03:06:48;7.53;;;2.63;;
35372;SDS011;21476;51.652;7.852;2022-11-06T03:09:18;8.70;;;3.17;;
35372;SDS011;21476;51.652;7.852;2022-11-06T03:11:52;10.82;;;3.25;;
35372;SDS011;21476;51.652;7.852;2022-11-06T03:14:28;7.57;;;3.25;;
35372;SDS011;21476;51.652;7.852;2022-11-06T03:22:34;10.88;;;3.58;;
35372;SDS011;21476;51.652;7.852;2022-11-06T03:27:44;9.25;;;3.22;;
35372;SDS011;21476;51.652;7.852;2022-11-06T03:30:27;5.18;;;2.80;;
35372;SDS011;21476;51.652;7.852;2022-11-06T03:33:01;9.77;;;3.33;;
35372;SDS011;21476;51.652;7.852;2022-11-06T03:38:29;7.68;;;3.15;;
35372;SDS011;21476;51.652;7.852;2022-11-06T03:41:45;10.75;;;2.92;;
35372;SDS011;21476;51.652;7.852;2022-11-06T03:43:51;13.98;;;3.65;;
35372;SDS011;21476;51.652;7.852;2022-11-06T03:46:20;11.73;;;3.20;;
35372;SDS011;21476;51.652;7.852;2022-11-06T03:48:56;8.48;;;2.90;;
35372;SDS011;21476;51.652;7.852;2022-11-06T03:51:29;9.18;;;2.63;;
35372;SDS011;21476;51.652;7.852;2022-11-06T03:53:58;8.80;;;2.88;;
35372;SDS011;21476;51.652;7.852;2022-11-06T03:56:38;6.15;;;3.42;;
35372;SDS011;21476;51.652;7.852;2022-11-06T03:59:07;9.55;;;2.72;;
35372;SDS011;21476;51.652;7.852;2022-11-06T04:01:36;8.73;;;3.28;;
35372;SDS011;21476;51.652;7.852;2022-11-06T04:04:13;10.13;;;3.10;;
35372;SDS011;21476;51.652;7.852;2022-11-06T04:06:46;6.55;;;3.28;;
35372;SDS011;21476;51.652;7.852;2022-11-06T04:09:23;10.52;;;2.85;;
35372;SDS011;21476;51.652;7.852;2022-11-06T04:12:13;7.97;;;3.03;;
35372;SDS011;21476;51.652;7.852;2022-11-06T04:15:02;7.03;;;2.72;;
35372;SDS011;21476;51.652;7.852;2022-11-06T04:17:29;10.35;;;2.97;;
35372;SDS011;21476;51.652;7.852;2022-11-06T04:19:59;11.13;;;3.20;;
35372;SDS011;21476;51.652;7.852;2022-11-06T04:26:07;5.32;;;2.50;;
35372;SDS011;21476;51.652;7.852;2022-11-06T04:36:48;9.07;;;3.63;;
35372;SDS011;21476;51.652;7.852;2022-11-06T04:39:29;8.07;;;2.72;;
35372;SDS011;21476;51.652;7.852;2022-11-06T04:42:15;7.70;;;2.83;;
35372;SDS011;21476;51.652;7.852;2022-11-06T04:44:51;6.60;;;3.08;;
35372;SDS011;21476;51.652;7.852;2022-11-06T04:47:21;8.35;;;2.72;;
35372;SDS011;21476;51.652;7.852;2022-11-06T04:49:48;9.55;;;2.65;;
35372;SDS011;21476;51.652;7.852;2022-11-06T04:52:20;7.88;;;2.45;;
35372;SDS011;21476;51.652;7.852;2022-11-06T04:54:49;8.70;;;2.97;;
35372;SDS011;21476;51.652;7.852;2022-11-06T04:57:15;6.93;;;2.85;;
35372;SDS011;21476;51.652;7.852;2022-11-06T04:59:40;7.80;;;2.78;;
35372;SDS011;21476;51.652;7.852;2022-11-06T05:02:06;8.07;;;2.67;;
35372;SDS011;21476;51.652;7.852;2022-11-06T05:04:32;7.05;;;2.50;;
35372;SDS011;21476;51.652;7.852;2022-11-06T05:06:58;7.72;;;2.75;;
35372;SDS011;21476;51.652;7.852;2022-11-06T05:09:23;5.13;;;2.38;;
35372;SDS011;21476;51.652;7.852;2022-11-06T05:11:49;9.02;;;2.83;;
35372;SDS011;21476;51.652;7.852;2022-11-06T05:14:15;8.05;;;2.40;;
35372;SDS011;21476;51.652;7.852;2022-11-06T05:16:41;8.60;;;2.58;;
35372;SDS011;21476;51.652;7.852;2022-11-06T05:19:06;6.47;;;2.65;;
35372;SDS011;21476;51.652;7.852;2022-11-06T05:21:32;6.57;;;2.67;;
35372;SDS011;21476;51.652;7.852;2022-11-06T05:24:16;7.03;;;2.78;;
35372;SDS011;21476;51.652;7.852;2022-11-06T05:26:42;8.98;;;2.90;;
35372;SDS011;21476;51.652;7.852;2022-11-06T05:29:08;10.18;;;2.72;;
35372;SDS011;21476;51.652;7.852;2022-11-06T05:31:35;8.85;;;2.47;;
35372;SDS011;21476;51.652;7.852;2022-11-06T05:34:00;6.28;;;2.10;;
35372;SDS011;21476;51.652;7.852;2022-11-06T05:36:26;8.55;;;2.60;;
35372;SDS011;21476;51.652;7.852;2022-11-06T05:38:52;6.88;;;2.40;;
35372;SDS011;21476;51.652;7.852;2022-11-06T05:41:17;8.25;;;3.13;;
35372;SDS011;21476;51.652;7.852;2022-11-06T05:43:43;9.90;;;2.80;;
35372;SDS011;21476;51.652;7.852;2022-11-06T05:46:08;4.70;;;2.20;;
35372;SDS011;21476;51.652;7.852;2022-11-06T05:48:34;13.95;;;3.00;;
35372;SDS011;21476;51.652;7.852;2022-11-06T05:51:00;12.43;;;2.90;;
35372;SDS011;21476;51.652;7.852;2022-11-06T05:53:28;8.98;;;3.65;;
35372;SDS011;21476;51.652;7.852;2022-11-06T05:55:55;5.60;;;2.47;;
35372;SDS011;21476;51.652;7.852;2022-11-06T05:58:21;6.53;;;2.95;;
35372;SDS011;21476;51.652;7.852;2022-11-06T06:00:47;10.25;;;2.50;;
35372;SDS011;21476;51.652;7.852;2022-11-06T06:03:13;7.32;;;2.20;;
35372;SDS011;21476;51.652;7.852;2022-11-06T06:05:39;7.55;;;2.67;;
35372;SDS011;21476;51.652;7.852;2022-11-06T06:08:04;8.38;;;2.25;;
35372;SDS011;21476;51.652;7.852;2022-11-06T06:10:30;7.20;;;2.83;;
35372;SDS011;21476;51.652;7.852;2022-11-06T06:12:56;6.47;;;2.10;;
35372;SDS011;21476;51.652;7.852;2022-11-06T06:15:21;9.43;;;2.70;;
35372;SDS011;21476;51.652;7.852;2022-11-06T06:17:47;6.65;;;2.33;;
35372;SDS011;21476;51.652;7.852;2022-11-06T06:20:13;9.48;;;2.45;;
35372;SDS011;21476;51.652;7.852;2022-11-06T06:22:38;5.57;;;2.05;;
35372;SDS011;21476;51.652;7.852;2022-11-06T06:25:04;4.38;;;1.98;;
35372;SDS011;21476;51.652;7.852;2022-11-06T06:27:30;6.40;;;2.53;;
35372;SDS011;21476;51.652;7.852;2022-11-06T06:29:56;5.18;;;1.95;;
35372;SDS011;21476;51.652;7.852;2022-11-06T06:32:21;7.85;;;2.60;;
35372;SDS011;21476;51.652;7.852;2022-11-06T06:34:47;5.18;;;2.10;;
35372;SDS011;21476;51.652;7.852;2022-11-06T06:37:12;7.55;;;2.58;;
35372;SDS011;21476;51.652;7.852;2022-11-06T06:39:38;6.72;;;2.40;;
35372;SDS011;21476;51.652;7.852;2022-11-06T06:42:03;8.02;;;2.83;;
35372;SDS011;21476;51.652;7.852;2022-11-06T06:44:29;8.60;;;3.13;;
35372;SDS011;21476;51.652;7.852;2022-11-06T06:46:55;9.25;;;2.42;;
35372;SDS011;21476;51.652;7.852;2022-11-06T06:49:21;6.40;;;2.28;;
35372;SDS011;21476;51.652;7.852;2022-11-06T06:51:47;7.25;;;2.40;;
35372;SDS011;21476;51.652;7.852;2022-11-06T06:54:13;4.45;;;2.00;;
35372;SDS011;21476;51.652;7.852;2022-11-06T06:56:39;7.30;;;2.08;;
35372;SDS011;21476;51.652;7.852;2022-11-06T06:59:04;8.00;;;2.25;;
35372;SDS011;21476;51.652;7.852;2022-11-06T07:01:31;8.57;;;1.98;;
35372;SDS011;21476;51.652;7.852;2022-11-06T07:03:57;8.95;;;1.88;;
35372;SDS011;21476;51.652;7.852;2022-11-06T07:06:23;11.27;;;2.35;;
35372;SDS011;21476;51.652;7.852;2022-11-06T07:08:49;9.75;;;1.90;;
35372;SDS011;21476;51.652;7.852;2022-11-06T07:11:18;5.00;;;2.38;;
35372;SDS011;21476;51.652;7.852;2022-11-06T07:13:43;5.70;;;1.42;;
35372;SDS011;21476;51.652;7.852;2022-11-06T07:16:09;7.53;;;2.25;;
35372;SDS011;21476;51.652;7.852;2022-11-06T07:18:36;4.95;;;1.98;;
35372;SDS011;21476;51.652;7.852;2022-11-06T07:21:06;5.88;;;1.75;;
35372;SDS011;21476;51.652;7.852;2022-11-06T07:23:34;5.82;;;1.90;;
35372;SDS011;21476;51.652;7.852;2022-11-06T07:26:01;11.18;;;2.20;;
35372;SDS011;21476;51.652;7.852;2022-11-06T07:28:28;5.07;;;1.90;;
35372;SDS011;21476;51.652;7.852;2022-11-06T07:30:57;4.90;;;1.60;;
35372;SDS011;21476;51.652;7.852;2022-11-06T07:33:24;8.52;;;2.10;;
35372;SDS011;21476;51.652;7.852;2022-11-06T07:35:50;4.80;;;1.58;;
35372;SDS011;21476;51.652;7.852;2022-11-06T07:38:15;6.63;;;2.10;;
35372;SDS011;21476;51.652;7.852;2022-11-06T07:40:41;9.52;;;1.90;;
35372;SDS011;21476;51.652;7.852;2022-11-06T07:43:07;5.85;;;1.92;;
35372;SDS011;21476;51.652;7.852;2022-11-06T07:45:35;7.70;;;1.77;;
35372;SDS011;21476;51.652;7.852;2022-11-06T07:48:01;6.07;;;1.90;;
35372;SDS011;21476;51.652;7.852;2022-11-06T07:50:27;5.85;;;1.73;;
35372;SDS011;21476;51.652;7.852;2022-11-06T07:52:54;3.72;;;1.50;;
35372;SDS011;21476;51.652;7.852;2022-11-06T07:55:19;6.35;;;1.88;;
35372;SDS011;21476;51.652;7.852;2022-11-06T07:57:45;5.82;;;2.00;;
35372;SDS011;21476;51.652;7.852;2022-11-06T08:00:11;6.25;;;1.60;;
35372;SDS011;21476;51.652;7.852;2022-11-06T08:02:38;3.70;;;1.40;;
35372;SDS011;21476;51.652;7.852;2022-11-06T08:05:03;4.35;;;1.67;;
35372;SDS011;21476;51.652;7.852;2022-11-06T08:07:29;6.53;;;1.38;;
35372;SDS011;21476;51.652;7.852;2022-11-06T08:09:55;7.05;;;1.70;;
35372;SDS011;21476;51.652;7.852;2022-11-06T08:12:21;13.32;;;4.93;;
35372;SDS011;21476;51.652;7.852;2022-11-06T08:14:46;5.85;;;1.73;;
35372;SDS011;21476;51.652;7.852;2022-11-06T08:17:12;4.18;;;1.67;;
35372;SDS011;21476;51.652;7.852;2022-11-06T08:19:37;7.57;;;2.17;;
35372;SDS011;21476;51.652;7.852;2022-11-06T08:22:03;6.78;;;1.85;;
35372;SDS011;21476;51.652;7.852;2022-11-06T08:24:29;4.38;;;1.80;;
35372;SDS011;21476;51.652;7.852;2022-11-06T08:26:55;6.60;;;1.80;;
35372;SDS011;21476;51.652;7.852;2022-11-06T08:29:21;6.60;;;1.70;;
35372;SDS011;21476;51.652;7.852;2022-11-06T08:31:47;4.80;;;1.77;;
35372;SDS011;21476;51.652;7.852;2022-11-06T08:34:13;6.55;;;1.60;;
35372;SDS011;21476;51.652;7.852;2022-11-06T08:36:39;5.93;;;1.30;;
35372;SDS011;21476;51.652;7.852;2022-11-06T08:39:09;6.50;;;1.80;;
35372;SDS011;21476;51.652;7.852;2022-11-06T08:41:38;6.45;;;1.50;;
35372;SDS011;21476;51.652;7.852;2022-11-06T08:44:04;8.38;;;1.80;;
35372;SDS011;21476;51.652;7.852;2022-11-06T08:46:30;4.93;;;1.80;;
35372;SDS011;21476;51.652;7.852;2022-11-06T08:48:56;5.07;;;1.40;;
35372;SDS011;21476;51.652;7.852;2022-11-06T08:51:21;6.88;;;1.85;;
35372;SDS011;21476;51.652;7.852;2022-11-06T08:53:47;7.10;;;2.00;;
35372;SDS011;21476;51.652;7.852;2022-11-06T08:56:13;3.28;;;1.27;;
35372;SDS011;21476;51.652;7.852;2022-11-06T08:58:38;4.97;;;1.60;;
35372;SDS011;21476;51.652;7.852;2022-11-06T09:01:04;4.35;;;1.48;;
35372;SDS011;21476;51.652;7.852;2022-11-06T09:03:30;3.58;;;1.58;;
35372;SDS011;21476;51.652;7.852;2022-11-06T09:05:55;6.90;;;1.83;;
35372;SDS011;21476;51.652;7.852;2022-11-06T09:08:21;6.47;;;1.55;;
35372;SDS011;21476;51.652;7.852;2022-11-06T09:10:48;4.03;;;1.10;;
35372;SDS011;21476;51.652;7.852;2022-11-06T09:13:14;4.97;;;1.42;;
35372;SDS011;21476;51.652;7.852;2022-11-06T09:15:40;9.27;;;1.85;;
35372;SDS011;21476;51.652;7.852;2022-11-06T09:18:06;4.63;;;1.40;;
35372;SDS011;21476;51.652;7.852;2022-11-06T09:20:32;5.15;;;1.33;;
35372;SDS011;21476;51.652;7.852;2022-11-06T09:22:59;5.65;;;1.67;;
35372;SDS011;21476;51.652;7.852;2022-11-06T09:25:26;6.68;;;1.58;;
35372;SDS011;21476;51.652;7.852;2022-11-06T09:27:52;3.67;;;1.50;;
35372;SDS011;21476;51.652;7.852;2022-11-06T09:30:18;6.18;;;1.52;;
35372;SDS011;21476;51.652;7.852;2022-11-06T09:32:47;8.02;;;1.70;;
35372;SDS011;21476;51.652;7.852;2022-11-06T09:35:18;4.82;;;1.13;;
35372;SDS011;21476;51.652;7.852;2022-11-06T09:37:44;3.88;;;1.20;;
35372;SDS011;21476;51.652;7.852;2022-11-06T09:40:29;8.35;;;1.90;;
35372;SDS011;21476;51.652;7.852;2022-11-06T09:45:37;4.22;;;1.27;;
35372;SDS011;21476;51.652;7.852;2022-11-06T09:48:15;8.45;;;1.83;;
35372;SDS011;21476;51.652;7.852;2022-11-06T09:53:34;5.38;;;1.35;;
35372;SDS011;21476;51.652;7.852;2022-11-06T09:56:03;3.88;;;1.23;;
35372;SDS011;21476;51.652;7.852;2022-11-06T09:58:32;3.67;;;1.00;;
35372;SDS011;21476;51.652;7.852;2022-11-06T10:01:03;12.27;;;1.92;;
35372;SDS011;21476;51.652;7.852;2022-11-06T10:06:19;6.07;;;1.60;;
35372;SDS011;21476;51.652;7.852;2022-11-06T10:08:46;5.53;;;1.45;;
35372;SDS011;21476;51.652;7.852;2022-11-06T10:14:02;6.13;;;1.65;;
35372;SDS011;21476;51.652;7.852;2022-11-06T10:27:39;3.90;;;1.45;;
35372;SDS011;21476;51.652;7.852;2022-11-06T10:40:45;4.93;;;1.58;;
35372;SDS011;21476;51.652;7.852;2022-11-06T10:45:49;6.85;;;2.47;;
35372;SDS011;21476;51.652;7.852;2022-11-06T10:48:28;8.93;;;1.77;;
35372;SDS011;21476;51.652;7.852;2022-11-06T10:51:18;5.22;;;1.85;;
35372;SDS011;21476;51.652;7.852;2022-11-06T10:56:45;8.48;;;1.73;;
35372;SDS011;21476;51.652;7.852;2022-11-06T10:59:13;7.78;;;2.30;;
35372;SDS011;21476;51.652;7.852;2022-11-06T11:01:40;9.63;;;2.00;;
35372;SDS011;21476;51.652;7.852;2022-11-06T11:04:06;5.38;;;1.83;;
35372;SDS011;21476;51.652;7.852;2022-11-06T11:06:31;6.43;;;2.25;;
35372;SDS011;21476;51.652;7.852;2022-11-06T11:08:57;7.47;;;1.58;;
35372;SDS011;21476;51.652;7.852;2022-11-06T11:11:23;9.05;;;1.90;;
35372;SDS011;21476;51.652;7.852;2022-11-06T11:14:11;5.82;;;2.17;;
35372;SDS011;21476;51.652;7.852;2022-11-06T11:16:37;8.18;;;1.73;;
35372;SDS011;21476;51.652;7.852;2022-11-06T11:22:16;4.80;;;1.90;;
35372;SDS011;21476;51.652;7.852;2022-11-06T11:24:58;7.28;;;2.08;;
35372;SDS011;21476;51.652;7.852;2022-11-06T11:27:37;10.13;;;2.50;;
35372;SDS011;21476;51.652;7.852;2022-11-06T11:30:24;8.50;;;2.17;;
35372;SDS011;21476;51.652;7.852;2022-11-06T11:32:53;8.52;;;2.08;;
35372;SDS011;21476;51.652;7.852;2022-11-06T11:35:26;7.67;;;2.33;;
35372;SDS011;21476;51.652;7.852;2022-11-06T11:38:04;6.43;;;1.87;;
35372;SDS011;21476;51.652;7.852;2022-11-06T11:40:36;8.55;;;2.33;;
35372;SDS011;21476;51.652;7.852;2022-11-06T11:46:03;5.82;;;2.53;;
35372;SDS011;21476;51.652;7.852;2022-11-06T11:48:46;5.57;;;1.70;;
35372;SDS011;21476;51.652;7.852;2022-11-06T11:53:47;4.15;;;2.03;;
35372;SDS011;21476;51.652;7.852;2022-11-06T11:56:13;7.25;;;2.17;;
35372;SDS011;21476;51.652;7.852;2022-11-06T11:58:50;6.03;;;1.95;;
35372;SDS011;21476;51.652;7.852;2022-11-06T12:01:38;4.95;;;1.80;;
35372;SDS011;21476;51.652;7.852;2022-11-06T12:04:16;6.85;;;2.17;;
35372;SDS011;21476;51.652;7.852;2022-11-06T12:06:50;4.45;;;2.00;;
35372;SDS011;21476;51.652;7.852;2022-11-06T12:09:19;7.03;;;2.15;;
35372;SDS011;21476;51.652;7.852;2022-11-06T12:11:45;6.80;;;1.92;;
35372;SDS011;21476;51.652;7.852;2022-11-06T12:14:24;3.63;;;2.17;;
35372;SDS011;21476;51.652;7.852;2022-11-06T12:16:59;5.93;;;2.08;;
35372;SDS011;21476;51.652;7.852;2022-11-06T12:19:40;4.78;;;1.80;;
35372;SDS011;21476;51.652;7.852;2022-11-06T12:22:13;5.57;;;1.98;;
35372;SDS011;21476;51.652;7.852;2022-11-06T12:27:34;4.55;;;1.52;;
35372;SDS011;21476;51.652;7.852;2022-11-06T12:35:48;7.75;;;2.85;;
35372;SDS011;21476;51.652;7.852;2022-11-06T12:38:25;6.68;;;1.60;;
35372;SDS011;21476;51.652;7.852;2022-11-06T12:41:12;4.93;;;2.10;;
35372;SDS011;21476;51.652;7.852;2022-11-06T12:43:43;5.35;;;2.03;;
35372;SDS011;21476;51.652;7.852;2022-11-06T12:48:52;5.95;;;1.65;;
35372;SDS011;21476;51.652;7.852;2022-11-06T12:51:31;3.80;;;1.73;;
35372;SDS011;21476;51.652;7.852;2022-11-06T12:56:51;6.28;;;1.60;;
35372;SDS011;21476;51.652;7.852;2022-11-06T12:59:27;5.65;;;1.80;;
35372;SDS011;21476;51.652;7.852;2022-11-06T13:02:03;6.88;;;1.90;;
35372;SDS011;21476;51.652;7.852;2022-11-06T13:04:48;9.35;;;2.72;;
35372;SDS011;21476;51.652;7.852;2022-11-06T13:07:35;5.10;;;1.60;;
35372;SDS011;21476;51.652;7.852;2022-11-06T13:18:19;9.98;;;1.92;;
35372;SDS011;21476;51.652;7.852;2022-11-06T13:21:02;4.53;;;1.63;;
35372;SDS011;21476;51.652;7.852;2022-11-06T13:23:34;7.38;;;1.60;;
35372;SDS011;21476;51.652;7.852;2022-11-06T13:26:11;4.55;;;1.70;;
35372;SDS011;21476;51.652;7.852;2022-11-06T13:28:44;4.53;;;1.75;;
35372;SDS011;21476;51.652;7.852;2022-11-06T13:31:20;5.13;;;1.55;;
35372;SDS011;21476;51.652;7.852;2022-11-06T13:33:51;5.80;;;1.67;;
35372;SDS011;21476;51.652;7.852;2022-11-06T13:36:20;5.68;;;1.60;;
35372;SDS011;21476;51.652;7.852;2022-11-06T13:38:49;5.35;;;1.55;;
35372;SDS011;21476;51.652;7.852;2022-11-06T13:41:26;4.43;;;1.30;;
35372;SDS011;21476;51.652;7.852;2022-11-06T13:43:56;4.70;;;1.38;;
35372;SDS011;21476;51.652;7.852;2022-11-06T13:46:25;6.78;;;1.50;;
35372;SDS011;21476;51.652;7.852;2022-11-06T13:55:16;4.97;;;1.45;;
35372;SDS011;21476;51.652;7.852;2022-11-06T14:00:52;5.38;;;1.52;;
35372;SDS011;21476;51.652;7.852;2022-11-06T14:03:43;5.72;;;1.83;;
35372;SDS011;21476;51.652;7.852;2022-11-06T14:06:31;5.40;;;2.08;;
35372;SDS011;21476;51.652;7.852;2022-11-06T14:09:08;5.78;;;1.83;;
35372;SDS011;21476;51.652;7.852;2022-11-06T14:11:50;6.50;;;1.98;;
35372;SDS011;21476;51.652;7.852;2022-11-06T14:16:47;4.57;;;1.50;;
35372;SDS011;21476;51.652;7.852;2022-11-06T14:19:35;4.15;;;1.92;;
35372;SDS011;21476;51.652;7.852;2022-11-06T14:24:38;5.40;;;1.90;;
35372;SDS011;21476;51.652;7.852;2022-11-06T14:30:00;6.93;;;1.58;;
35372;SDS011;21476;51.652;7.852;2022-11-06T14:34:55;4.78;;;1.52;;
35372;SDS011;21476;51.652;7.852;2022-11-06T14:50:00;4.65;;;1.58;;
35372;SDS011;21476;51.652;7.852;2022-11-06T14:52:48;5.38;;;1.90;;
35372;SDS011;21476;51.652;7.852;2022-11-06T15:01:33;4.63;;;2.20;;
35372;SDS011;21476;51.652;7.852;2022-11-06T15:09:04;4.93;;;1.58;;
35372;SDS011;21476;51.652;7.852;2022-11-06T15:16:38;4.22;;;1.60;;
35372;SDS011;21476;51.652;7.852;2022-11-06T15:19:27;3.38;;;1.48;;
35372;SDS011;21476;51.652;7.852;2022-11-06T15:25:11;5.18;;;1.33;;
35372;SDS011;21476;51.652;7.852;2022-11-06T15:30:29;4.22;;;1.40;;
35372;SDS011;21476;51.652;7.852;2022-11-06T15:33:02;4.00;;;1.40;;
35372;SDS011;21476;51.652;7.852;2022-11-06T15:35:34;3.60;;;1.40;;
35372;SDS011;21476;51.652;7.852;2022-11-06T15:38:04;2.92;;;1.40;;
35372;SDS011;21476;51.652;7.852;2022-11-06T15:40:41;2.90;;;1.25;;
35372;SDS011;21476;51.652;7.852;2022-11-06T15:48:41;4.63;;;1.60;;
35372;SDS011;21476;51.652;7.852;2022-11-06T15:54:04;4.93;;;1.92;;
35372;SDS011;21476;51.652;7.852;2022-11-06T15:56:31;5.25;;;2.25;;
35372;SDS011;21476;51.652;7.852;2022-11-06T15:59:12;6.03;;;2.20;;
35372;SDS011;21476;51.652;7.852;2022-11-06T16:01:40;4.07;;;1.50;;
35372;SDS011;21476;51.652;7.852;2022-11-06T16:04:13;3.72;;;1.60;;
35372;SDS011;21476;51.652;7.852;2022-11-06T16:06:42;3.97;;;1.35;;
35372;SDS011;21476;51.652;7.852;2022-11-06T16:09:12;4.07;;;1.90;;
35372;SDS011;21476;51.652;7.852;2022-11-06T16:11:44;3.25;;;1.70;;
35372;SDS011;21476;51.652;7.852;2022-11-06T16:14:12;4.35;;;1.70;;
35372;SDS011;21476;51.652;7.852;2022-11-06T16:19:16;3.22;;;1.50;;
35372;SDS011;21476;51.652;7.852;2022-11-06T16:21:47;6.20;;;1.80;;
35372;SDS011;21476;51.652;7.852;2022-11-06T16:24:16;4.22;;;2.03;;
35372;SDS011;21476;51.652;7.852;2022-11-06T16:26:49;8.35;;;1.95;;
35372;SDS011;21476;51.652;7.852;2022-11-06T16:29:16;4.07;;;1.33;;
35372;SDS011;21476;51.652;7.852;2022-11-06T16:31:43;3.63;;;1.50;;
35372;SDS011;21476;51.652;7.852;2022-11-06T16:34:20;3.75;;;1.60;;
35372;SDS011;21476;51.652;7.852;2022-11-06T16:48:22;5.60;;;2.38;;
35372;SDS011;21476;51.652;7.852;2022-11-06T16:50:52;6.70;;;2.67;;
35372;SDS011;21476;51.652;7.852;2022-11-06T16:53:25;5.88;;;2.80;;
35372;SDS011;21476;51.652;7.852;2022-11-06T16:55:57;5.60;;;2.00;;
35372;SDS011;21476;51.652;7.852;2022-11-06T16:58:24;5.25;;;1.88;;
35372;SDS011;21476;51.652;7.852;2022-11-06T17:00:54;3.05;;;1.48;;
35372;SDS011;21476;51.652;7.852;2022-11-06T17:03:22;4.18;;;2.00;;
35372;SDS011;21476;51.652;7.852;2022-11-06T17:05:56;4.30;;;2.00;;
35372;SDS011;21476;51.652;7.852;2022-11-06T17:10:58;4.40;;;1.50;;
35372;SDS011;21476;51.652;7.852;2022-11-06T17:13:39;7.13;;;2.80;;
35372;SDS011;21476;51.652;7.852;2022-11-06T17:16:12;4.03;;;1.63;;
35372;SDS011;21476;51.652;7.852;2022-11-06T17:18:43;4.43;;;1.75;;
35372;SDS011;21476;51.652;7.852;2022-11-06T17:21:19;2.88;;;1.65;;
35372;SDS011;21476;51.652;7.852;2022-11-06T17:23:46;2.90;;;1.48;;
35372;SDS011;21476;51.652;7.852;2022-11-06T17:28:44;4.68;;;1.92;;
35372;SDS011;21476;51.652;7.852;2022-11-06T17:31:13;5.20;;;2.25;;
35372;SDS011;21476;51.652;7.852;2022-11-06T17:33:40;4.55;;;2.38;;
35372;SDS011;21476;51.652;7.852;2022-11-06T17:36:08;4.97;;;2.10;;
35372;SDS011;21476;51.652;7.852;2022-11-06T17:38:49;6.90;;;2.75;;
35372;SDS011;21476;51.652;7.852;2022-11-06T17:41:15;4.30;;;2.22;;
35372;SDS011;21476;51.652;7.852;2022-11-06T17:44:00;4.13;;;1.60;;
35372;SDS011;21476;51.652;7.852;2022-11-06T17:46:29;6.15;;;2.00;;
35372;SDS011;21476;51.652;7.852;2022-11-06T17:49:05;4.47;;;2.00;;
35372;SDS011;21476;51.652;7.852;2022-11-06T17:51:31;7.38;;;3.00;;
35372;SDS011;21476;51.652;7.852;2022-11-06T17:54:17;4.65;;;1.83;;
35372;SDS011;21476;51.652;7.852;2022-11-06T17:56:44;4.32;;;2.40;;
35372;SDS011;21476;51.652;7.852;2022-11-06T17:59:10;5.47;;;1.90;;
35372;SDS011;21476;51.652;7.852;2022-11-06T18:01:37;6.25;;;1.98;;
35372;SDS011;21476;51.652;7.852;2022-11-06T18:04:03;4.68;;;1.90;;
35372;SDS011;21476;51.652;7.852;2022-11-06T18:06:30;3.05;;;1.67;;
35372;SDS011;21476;51.652;7.852;2022-11-06T18:08:57;4.13;;;1.92;;
35372;SDS011;21476;51.652;7.852;2022-11-06T18:11:24;4.07;;;2.45;;
35372;SDS011;21476;51.652;7.852;2022-11-06T18:13:50;4.47;;;1.92;;